Time;durP1;ratioP1;P1;durP2;ratioP2;P2;SDS_P1;SDS_P2;PMS_P1;PMS_P2;Temp;Humidity;BMP_temperature;BMP_pressure;BME280_temperature;BME280_humidity;BME280_pressure;Samples;Min_cycle;Max_cycle;Signal;HPM_P1;HPM_P2
2021/03/09 00:01:34;;;;;;;1.27;1.17;;;17.50;49.40;;;;;;4986292;28;20037;-61
2021/03/09 00:04:00;;;;;;;1.65;1.20;;;17.50;50.00;;;;;;4986832;28;20030;-61
2021/03/09 00:06:25;;;;;;;2.50;1.23;;;17.50;49.40;;;;;;4986784;28;20045;-61
2021/03/09 00:08:51;;;;;;;2.83;1.52;;;17.50;49.30;;;;;;4984909;28;20050;-61
2021/03/09 00:11:16;;;;;;;3.17;1.23;;;17.40;49.30;;;;;;4984899;28;20101;-60
2021/03/09 00:13:41;;;;;;;2.35;1.27;;;17.40;49.40;;;;;;5003950;28;21274;-61
2021/03/09 00:16:07;;;;;;;4.88;1.60;;;17.40;49.30;;;;;;5004113;28;20026;-61
2021/03/09 00:18:33;;;;;;;1.42;1.00;;;17.40;49.40;;;;;;5002489;28;20124;-61
2021/03/09 00:20:58;;;;;;;2.80;1.58;;;17.30;49.60;;;;;;5004246;28;20113;-61
2021/03/09 00:23:23;;;;;;;3.95;1.10;;;17.30;49.80;;;;;;5004735;28;20022;-60
2021/03/09 00:25:49;;;;;;;1.60;1.08;;;17.40;49.50;;;;;;5003857;28;20029;-61
2021/03/09 00:28:19;;;;;;;3.20;1.20;;;17.50;49.20;;;;;;5004104;28;20030;-58
2021/03/09 00:30:45;;;;;;;2.80;1.42;;;17.70;48.70;;;;;;5004093;28;20798;-61
2021/03/09 00:33:10;;;;;;;1.77;1.17;;;17.90;48.40;;;;;;5004365;28;20088;-61
2021/03/09 00:35:36;;;;;;;2.60;1.38;;;18.00;48.20;;;;;;5004254;28;20026;-61
2021/03/09 00:38:01;;;;;;;3.80;1.80;;;18.10;48.10;;;;;;5003537;28;20534;-61
2021/03/09 00:40:27;;;;;;;1.25;0.90;;;18.10;47.90;;;;;;5018979;28;20037;-61
2021/03/09 00:42:52;;;;;;;4.22;1.50;;;18.20;47.80;;;;;;5003796;28;20033;-60
2021/03/09 00:45:18;;;;;;;2.22;1.00;;;18.20;47.60;;;;;;5004445;28;20046;-61
2021/03/09 00:47:43;;;;;;;2.85;1.10;;;18.30;47.60;;;;;;5004232;28;20560;-58
2021/03/09 00:50:09;;;;;;;1.30;1.20;;;18.40;47.50;;;;;;5004112;28;20036;-56
2021/03/09 00:52:35;;;;;;;2.08;1.20;;;18.40;47.50;;;;;;5003732;28;20038;-61
2021/03/09 00:55:00;;;;;;;2.15;1.20;;;18.30;47.40;;;;;;5003903;28;20053;-61
2021/03/09 00:57:26;;;;;;;1.63;1.05;;;18.30;47.40;;;;;;5007048;28;20408;-62
2021/03/09 00:59:51;;;;;;;1.10;0.93;;;18.30;47.40;;;;;;5007416;28;20492;-62
2021/03/09 01:02:17;;;;;;;2.17;0.80;;;18.30;47.60;;;;;;5008423;28;20018;-61
2021/03/09 01:04:42;;;;;;;1.70;0.88;;;18.30;47.60;;;;;;5007947;28;20359;-61
2021/03/09 01:07:08;;;;;;;3.92;1.30;;;18.20;47.60;;;;;;5007412;28;20281;-62
2021/03/09 01:09:33;;;;;;;1.55;1.02;;;18.20;47.60;;;;;;5007157;28;20042;-60
2021/03/09 01:11:59;;;;;;;2.30;1.17;;;18.20;47.70;;;;;;5007107;28;20034;-61
2021/03/09 01:14:24;;;;;;;2.35;1.20;;;18.20;47.70;;;;;;5007472;28;20036;-55
2021/03/09 01:16:50;;;;;;;1.63;1.13;;;18.20;47.70;;;;;;5007210;28;20061;-61
2021/03/09 01:19:15;;;;;;;2.22;1.05;;;18.20;47.80;;;;;;5008196;28;20393;-61
2021/03/09 01:21:41;;;;;;;1.40;1.20;;;18.20;47.80;;;;;;5008178;28;20088;-61
2021/03/09 01:24:06;;;;;;;2.42;1.20;;;18.10;47.70;;;;;;5008452;28;20022;-60
2021/03/09 01:26:32;;;;;;;1.10;1.00;;;18.20;47.70;;;;;;5007127;28;20338;-61
2021/03/09 01:28:57;;;;;;;1.20;1.05;;;18.20;47.60;;;;;;5007423;28;20034;-61
2021/03/09 01:31:23;;;;;;;1.60;1.02;;;18.20;47.50;;;;;;5005557;28;20032;-59
2021/03/09 01:33:48;;;;;;;1.38;1.27;;;18.20;48.10;;;;;;5005835;28;20030;-62
2021/03/09 01:36:14;;;;;;;1.45;1.10;;;18.20;47.40;;;;;;5007236;28;20103;-61
2021/03/09 01:38:39;;;;;;;1.65;1.15;;;18.20;47.40;;;;;;5021548;28;20030;-61
2021/03/09 01:41:05;;;;;;;1.77;1.40;;;18.10;47.40;;;;;;5007309;28;20080;-60
2021/03/09 01:43:32;;;;;;;1.65;1.13;;;18.10;47.50;;;;;;5006656;28;20053;-57
2021/03/09 01:45:58;;;;;;;1.30;1.00;;;18.10;47.40;;;;;;5006935;28;20030;-61
2021/03/09 01:48:23;;;;;;;3.35;1.30;;;18.10;48.00;;;;;;5005271;28;20036;-61
2021/03/09 01:50:49;;;;;;;1.58;1.00;;;18.10;47.40;;;;;;5005920;28;20026;-60
2021/03/09 01:53:14;;;;;;;1.15;0.98;;;18.10;47.40;;;;;;5005958;28;20512;-61
2021/03/09 01:55:40;;;;;;;2.20;1.30;;;18.10;47.50;;;;;;5006771;28;20022;-61
2021/03/09 01:58:06;;;;;;;1.90;1.30;;;18.10;47.50;;;;;;5004585;28;20033;-62
2021/03/09 02:00:32;;;;;;;1.65;0.98;;;18.00;47.40;;;;;;5006536;28;20415;-56
2021/03/09 02:02:58;;;;;;;2.08;1.10;;;18.00;47.40;;;;;;5005270;28;20109;-61
2021/03/09 02:05:23;;;;;;;3.53;1.00;;;18.00;47.50;;;;;;5006183;28;20477;-61
2021/03/09 02:07:49;;;;;;;1.48;0.90;;;18.00;47.50;;;;;;5003494;28;20026;-61
2021/03/09 02:10:14;;;;;;;1.63;1.15;;;18.00;47.50;;;;;;5007024;28;20038;-57
2021/03/09 02:13:01;;;;;;;2.13;1.35;;;17.90;47.40;;;;;;5005009;28;20446;-60
2021/03/09 02:15:52;;;;;;;1.52;1.10;;;17.90;47.50;;;;;;5004961;28;20802;-56
2021/03/09 02:18:47;;;;;;;1.88;1.00;;;17.90;47.50;;;;;;5020216;23;20053;-62
2021/03/09 02:21:28;;;;;;;2.30;1.20;;;17.90;47.40;;;;;;4994212;28;20380;-59
2021/03/09 02:24:17;;;;;;;1.45;1.00;;;17.90;47.50;;;;;;4980057;28;20042;-59
2021/03/09 02:26:57;;;;;;;1.00;1.00;;;17.90;47.50;;;;;;4963415;28;20085;-59
2021/03/09 02:29:52;;;;;;;1.10;0.80;;;17.90;47.50;;;;;;4963660;28;20547;-59
2021/03/09 02:32:20;;;;;;;1.50;1.10;;;17.90;47.40;;;;;;4980905;28;20595;-64
2021/03/09 02:34:48;;;;;;;1.40;1.23;;;17.90;47.40;;;;;;4963706;28;20703;-61
2021/03/09 02:37:14;;;;;;;1.20;0.90;;;17.80;47.30;;;;;;4963832;28;20600;-60
2021/03/09 02:39:41;;;;;;;1.67;0.90;;;17.80;47.40;;;;;;4964741;28;20062;-60
2021/03/09 02:42:07;;;;;;;1.33;0.82;;;17.80;47.30;;;;;;4964792;28;20414;-60
2021/03/09 02:44:33;;;;;;;2.25;1.23;;;17.80;47.30;;;;;;4964610;28;20038;-59
2021/03/09 02:46:59;;;;;;;1.77;1.10;;;17.80;47.30;;;;;;4964324;28;20511;-59
2021/03/09 02:49:26;;;;;;;1.23;0.90;;;17.80;47.30;;;;;;4964286;28;20035;-60
2021/03/09 02:51:51;;;;;;;1.52;1.02;;;17.80;47.40;;;;;;4964877;28;20412;-57
2021/03/09 02:54:17;;;;;;;1.70;1.23;;;17.80;47.40;;;;;;4965065;28;20030;-60
2021/03/09 02:56:43;;;;;;;1.35;1.20;;;17.80;47.40;;;;;;4964588;28;20027;-59
2021/03/09 02:59:15;;;;;;;1.25;1.00;;;17.70;47.40;;;;;;4964724;28;20038;-60
2021/03/09 03:01:42;;;;;;;1.20;0.90;;;17.70;48.00;;;;;;4964892;28;20510;-56
2021/03/09 03:04:09;;;;;;;1.50;1.13;;;17.70;47.40;;;;;;4964792;28;20042;-58
2021/03/09 03:06:34;;;;;;;1.20;1.02;;;17.70;48.00;;;;;;4963801;28;20038;-56
2021/03/09 03:09:00;;;;;;;0.85;0.82;;;17.70;47.40;;;;;;4964166;28;20396;-57
2021/03/09 03:11:25;;;;;;;1.52;1.00;;;17.70;47.40;;;;;;4963602;28;20046;-59
2021/03/09 03:13:51;;;;;;;1.50;1.00;;;17.70;47.40;;;;;;4964248;28;20088;-57
2021/03/09 03:16:17;;;;;;;1.52;1.10;;;17.70;47.40;;;;;;4964066;28;20110;-58
2021/03/09 03:18:43;;;;;;;1.85;1.00;;;17.70;47.40;;;;;;4963805;28;20042;-60
2021/03/09 03:21:09;;;;;;;0.80;0.80;;;17.70;47.40;;;;;;4964760;28;20401;-58
2021/03/09 03:23:35;;;;;;;1.52;0.95;;;17.70;47.40;;;;;;4964207;28;20098;-60
2021/03/09 03:26:04;;;;;;;1.70;0.90;;;17.70;47.50;;;;;;4964563;28;20031;-58
2021/03/09 03:28:30;;;;;;;1.30;0.88;;;17.70;47.50;;;;;;4964928;28;20118;-59
2021/03/09 03:30:55;;;;;;;0.90;0.57;;;17.80;47.50;;;;;;4963829;28;20053;-57
2021/03/09 03:33:21;;;;;;;2.60;1.05;;;17.90;47.20;;;;;;4963520;28;20027;-58
2021/03/09 03:35:46;;;;;;;2.15;0.90;;;18.00;47.00;;;;;;4963938;28;20739;-60
2021/03/09 03:38:14;;;;;;;1.05;0.93;;;18.10;46.90;;;;;;4963419;28;20113;-59
2021/03/09 03:40:41;;;;;;;1.98;1.20;;;18.20;46.70;;;;;;4965476;28;20023;-59
2021/03/09 03:43:06;;;;;;;1.90;1.13;;;18.20;46.60;;;;;;4964323;28;20378;-58
2021/03/09 03:45:32;;;;;;;1.30;0.90;;;18.20;46.70;;;;;;4965264;28;20034;-58
2021/03/09 03:47:58;;;;;;;1.42;0.95;;;18.20;46.70;;;;;;4963663;28;20039;-61
2021/03/09 03:50:23;;;;;;;1.25;0.85;;;18.20;46.80;;;;;;4964111;28;20253;-60
2021/03/09 03:53:06;;;;;;;0.85;0.82;;;18.20;47.40;;;;;;4964846;28;20093;-58
2021/03/09 03:55:53;;;;;;;0.95;0.75;;;18.20;46.80;;;;;;4963596;28;20035;-59
2021/03/09 03:58:30;;;;;;;1.20;0.90;;;18.20;47.00;;;;;;4964180;28;20058;-61
2021/03/09 04:00:56;;;;;;;1.13;1.02;;;18.20;46.90;;;;;;4965529;28;20038;-59
2021/03/09 04:03:21;;;;;;;1.20;1.00;;;18.20;46.80;;;;;;4963226;28;20030;-59
2021/03/09 04:05:48;;;;;;;1.38;0.95;;;18.10;46.80;;;;;;4963784;28;20019;-59
2021/03/09 04:08:14;;;;;;;1.25;0.95;;;18.20;46.80;;;;;;4963962;28;20035;-59
2021/03/09 04:10:40;;;;;;;0.88;0.73;;;18.10;46.80;;;;;;4963568;28;20038;-59
2021/03/09 04:13:06;;;;;;;1.35;0.90;;;18.20;46.80;;;;;;4962938;28;20089;-56
2021/03/09 04:15:31;;;;;;;1.13;0.77;;;18.20;46.80;;;;;;4965004;28;20090;-58
2021/03/09 04:17:57;;;;;;;1.27;0.80;;;18.20;46.60;;;;;;4962672;28;20025;-59
2021/03/09 04:20:22;;;;;;;1.25;0.82;;;18.20;46.40;;;;;;4964657;28;20023;-59
2021/03/09 04:22:48;;;;;;;1.00;0.90;;;18.20;46.30;;;;;;4964078;28;20622;-58
2021/03/09 04:25:13;;;;;;;1.42;1.15;;;18.20;46.20;;;;;;4963235;28;20038;-59
2021/03/09 04:27:39;;;;;;;1.60;0.90;;;18.20;46.30;;;;;;4962499;28;20134;-59
2021/03/09 04:30:05;;;;;;;1.52;0.90;;;18.10;46.40;;;;;;4962696;28;20087;-58
2021/03/09 04:32:30;;;;;;;2.00;1.23;;;18.10;46.50;;;;;;4966894;28;20046;-58
2021/03/09 04:34:56;;;;;;;1.45;1.00;;;18.10;46.50;;;;;;4968117;28;20089;-58
2021/03/09 04:37:21;;;;;;;1.95;1.05;;;18.10;46.60;;;;;;4967836;28;20097;-59
2021/03/09 04:39:47;;;;;;;1.05;0.68;;;18.10;46.50;;;;;;4966836;28;20081;-59
2021/03/09 04:42:12;;;;;;;1.35;1.05;;;18.00;46.50;;;;;;4967352;28;20027;-59
2021/03/09 04:44:38;;;;;;;1.05;0.85;;;18.00;46.40;;;;;;4968523;28;20042;-59
2021/03/09 04:47:04;;;;;;;1.50;0.90;;;18.00;46.40;;;;;;4968957;28;20031;-59
2021/03/09 04:49:31;;;;;;;1.52;0.95;;;18.00;46.40;;;;;;4985991;28;20041;-59
2021/03/09 04:51:56;;;;;;;1.35;1.00;;;18.00;46.50;;;;;;4970380;28;20070;-56
2021/03/09 04:54:22;;;;;;;0.80;0.80;;;18.00;46.50;;;;;;4966730;28;20037;-59
2021/03/09 04:56:47;;;;;;;2.03;1.20;;;18.00;46.50;;;;;;4968000;28;20035;-59
2021/03/09 04:59:13;;;;;;;1.90;1.10;;;18.00;46.50;;;;;;4968090;28;20559;-59
2021/03/09 05:01:38;;;;;;;1.58;0.98;;;18.00;46.50;;;;;;4968337;28;20515;-58
2021/03/09 05:04:04;;;;;;;1.10;0.98;;;17.90;46.60;;;;;;4966599;28;20081;-59
2021/03/09 05:06:29;;;;;;;1.30;1.10;;;17.90;46.50;;;;;;4966379;28;20125;-60
2021/03/09 05:08:55;;;;;;;1.05;0.90;;;17.90;46.60;;;;;;4967681;28;20034;-59
2021/03/09 05:11:20;;;;;;;1.30;0.90;;;17.90;46.60;;;;;;4972104;28;20264;-59
2021/03/09 05:13:46;;;;;;;2.28;1.00;;;17.80;46.70;;;;;;4995231;28;20211;-58
2021/03/09 05:16:11;;;;;;;1.17;0.88;;;17.80;46.60;;;;;;4997889;28;20048;-58
2021/03/09 05:18:37;;;;;;;1.40;1.05;;;17.80;46.70;;;;;;4998203;28;20050;-59
2021/03/09 05:21:03;;;;;;;2.30;1.17;;;17.80;46.70;;;;;;5001325;28;20041;-59
2021/03/09 05:23:28;;;;;;;1.77;1.10;;;17.80;46.70;;;;;;4997292;28;20117;-59
2021/03/09 05:25:55;;;;;;;2.33;0.98;;;17.80;46.70;;;;;;4995544;28;20030;-59
2021/03/09 05:28:20;;;;;;;2.45;0.95;;;17.80;46.70;;;;;;4995274;28;20038;-59
2021/03/09 05:30:46;;;;;;;0.93;0.75;;;17.80;46.70;;;;;;4998716;28;20585;-59
2021/03/09 05:33:11;;;;;;;1.15;0.93;;;17.70;46.70;;;;;;4998190;28;20030;-59
2021/03/09 05:35:37;;;;;;;1.73;1.10;;;17.70;46.70;;;;;;4987938;28;20271;-59
2021/03/09 05:38:02;;;;;;;1.60;0.95;;;17.70;46.70;;;;;;4985900;28;20018;-60
2021/03/09 05:40:28;;;;;;;1.70;1.23;;;17.70;46.70;;;;;;4986906;28;20057;-60
2021/03/09 05:42:53;;;;;;;2.10;1.08;;;17.70;46.70;;;;;;4986838;28;20063;-58
2021/03/09 05:45:19;;;;;;;1.20;0.82;;;17.70;46.80;;;;;;4987196;28;20523;-65
2021/03/09 05:47:45;;;;;;;1.27;0.95;;;17.70;46.80;;;;;;4985708;28;20035;-58
2021/03/09 05:50:11;;;;;;;1.60;1.30;;;17.70;46.80;;;;;;4985974;28;20033;-59
2021/03/09 05:52:37;;;;;;;1.88;1.17;;;17.70;46.80;;;;;;4985205;28;20042;-58
2021/03/09 05:55:04;;;;;;;2.40;1.38;;;17.60;46.90;;;;;;5001752;28;20035;-58
2021/03/09 05:57:30;;;;;;;1.50;1.10;;;17.60;46.90;;;;;;4986417;28;20464;-59
2021/03/09 05:59:55;;;;;;;1.40;1.10;;;17.60;46.90;;;;;;4986213;28;20038;-58
2021/03/09 06:02:21;;;;;;;1.17;1.08;;;17.60;46.90;;;;;;5001965;28;20038;-59
2021/03/09 06:04:47;;;;;;;1.75;1.27;;;17.60;47.00;;;;;;4984888;28;20026;-59
2021/03/09 06:07:14;;;;;;;1.10;0.80;;;17.60;47.10;;;;;;4986576;28;20392;-59
2021/03/09 06:09:40;;;;;;;2.13;0.93;;;17.60;47.20;;;;;;4983263;28;20626;-58
2021/03/09 06:12:07;;;;;;;1.15;1.05;;;17.60;47.20;;;;;;4986814;28;20107;-60
2021/03/09 06:14:32;;;;;;;2.80;1.20;;;17.70;47.10;;;;;;4985141;28;20323;-60
2021/03/09 06:16:58;;;;;;;1.40;1.10;;;17.80;46.90;;;;;;4986189;28;20495;-60
2021/03/09 06:19:39;;;;;;;1.70;1.20;;;17.90;46.70;;;;;;4969058;28;20048;-60
2021/03/09 06:22:04;;;;;;;4.35;1.20;;;18.00;46.70;;;;;;4986974;28;20048;-60
2021/03/09 06:24:30;;;;;;;2.03;1.20;;;17.90;46.60;;;;;;4988736;28;20035;-60
2021/03/09 06:26:55;;;;;;;2.20;1.50;;;18.00;46.60;;;;;;4986781;28;20068;-60
2021/03/09 06:29:21;;;;;;;3.05;1.15;;;18.00;46.70;;;;;;4988972;28;20030;-59
2021/03/09 06:31:49;;;;;;;1.77;1.00;;;18.10;46.70;;;;;;4989423;28;20030;-60
2021/03/09 06:34:33;;;;;;;3.33;1.20;;;18.10;46.70;;;;;;4987066;28;20041;-60
2021/03/09 06:37:26;;;;;;;2.35;1.17;;;18.10;46.70;;;;;;4968251;28;20031;-60
2021/03/09 06:39:59;;;;;;;4.03;1.50;;;18.10;47.40;;;;;;4978376;28;20547;-60
2021/03/09 06:42:31;;;;;;;2.67;1.60;;;18.10;46.70;;;;;;4985666;28;20037;-61
2021/03/09 06:45:09;;;;;;;5.95;1.98;;;18.10;46.80;;;;;;4986148;28;20027;-61
2021/03/09 06:47:48;;;;;;;5.05;1.55;;;18.10;46.80;;;;;;4985678;28;20041;-60
2021/03/09 06:50:20;;;;;;;8.98;2.17;;;18.10;46.90;;;;;;4986201;28;20092;-60
2021/03/09 06:53:02;;;;;;;2.40;1.50;;;18.10;46.90;;;;;;4984106;28;20569;-59
2021/03/09 06:55:31;;;;;;;2.47;1.77;;;18.00;46.90;;;;;;4996718;28;20038;-59
2021/03/09 06:58:07;;;;;;;2.63;1.42;;;18.00;46.90;;;;;;4984396;28;20054;-60
2021/03/09 07:00:33;;;;;;;3.40;1.83;;;18.00;46.90;;;;;;4984330;28;20048;-60
2021/03/09 07:02:59;;;;;;;6.00;1.77;;;18.00;46.90;;;;;;4985517;28;20455;-59
2021/03/09 07:05:24;;;;;;;4.03;1.67;;;18.00;46.80;;;;;;4985641;28;20514;-59
2021/03/09 07:07:50;;;;;;;3.28;1.70;;;18.00;46.70;;;;;;4984279;28;20064;-56
2021/03/09 07:10:16;;;;;;;6.38;1.60;;;18.10;46.70;;;;;;4984230;28;20038;-59
2021/03/09 07:12:43;;;;;;;1.95;1.50;;;18.10;46.60;;;;;;4985724;28;20045;-60
2021/03/09 07:15:10;;;;;;;4.00;1.80;;;18.10;46.60;;;;;;4981836;28;20034;-60
2021/03/09 07:17:36;;;;;;;5.88;2.13;;;18.10;46.70;;;;;;4963319;28;20082;-60
2021/03/09 07:20:07;;;;;;;4.78;1.85;;;18.10;46.70;;;;;;4962451;28;20045;-60
2021/03/09 07:22:32;;;;;;;2.17;1.55;;;18.00;46.60;;;;;;4963885;28;20058;-60
2021/03/09 07:25:11;;;;;;;6.05;1.73;;;18.00;46.70;;;;;;4963690;28;20061;-57
2021/03/09 07:27:40;;;;;;;2.50;2.00;;;18.00;46.70;;;;;;4963687;28;20035;-60
2021/03/09 07:30:07;;;;;;;3.08;1.70;;;18.00;46.60;;;;;;4964354;28;20027;-60
2021/03/09 07:32:32;;;;;;;3.22;2.10;;;17.90;46.50;;;;;;4965675;28;20035;-61
2021/03/09 07:34:59;;;;;;;1.92;1.55;;;17.90;46.50;;;;;;4964399;28;20041;-61
2021/03/09 07:37:25;;;;;;;2.95;1.67;;;17.90;46.50;;;;;;4970176;28;20516;-61
2021/03/09 07:39:50;;;;;;;4.15;1.95;;;17.90;46.40;;;;;;5003554;28;20699;-59
2021/03/09 07:42:17;;;;;;;4.07;2.17;;;17.90;46.40;;;;;;5003075;28;21517;-60
2021/03/09 07:44:42;;;;;;;3.13;1.77;;;17.90;46.40;;;;;;4996528;28;20026;-59
2021/03/09 07:47:08;;;;;;;4.70;1.55;;;17.90;46.40;;;;;;4984299;28;20500;-58
2021/03/09 07:49:35;;;;;;;2.97;1.63;;;17.90;46.40;;;;;;4984241;28;20046;-59
2021/03/09 07:52:20;;;;;;;4.50;1.85;;;17.80;46.50;;;;;;4984298;28;20644;-59
2021/03/09 07:55:03;;;;;;;4.60;1.95;;;17.80;46.60;;;;;;4984625;28;20030;-58
2021/03/09 07:57:29;;;;;;;3.80;1.73;;;17.80;46.60;;;;;;4983783;28;20108;-60
2021/03/09 08:00:10;;;;;;;2.22;1.40;;;17.70;46.60;;;;;;4984682;28;20503;-60
2021/03/09 08:02:57;;;;;;;2.67;1.55;;;17.70;46.60;;;;;;4999603;28;20045;-58
2021/03/09 08:05:24;;;;;;;2.33;1.60;;;17.70;46.70;;;;;;4983510;28;20031;-59
2021/03/09 08:08:01;;;;;;;1.77;1.42;;;17.70;46.70;;;;;;4984582;28;20034;-60
2021/03/09 08:10:27;;;;;;;3.00;1.67;;;17.70;46.90;;;;;;4984335;28;20062;-57
2021/03/09 08:12:53;;;;;;;4.38;1.90;;;17.70;47.30;;;;;;4983802;28;20761;-57
2021/03/09 08:15:19;;;;;;;2.20;1.75;;;17.70;47.30;;;;;;4999583;28;20417;-60
2021/03/09 08:17:44;;;;;;;2.05;1.35;;;17.70;47.40;;;;;;4982608;28;20035;-60
2021/03/09 08:20:43;;;;;;;1.95;1.30;;;17.70;47.40;;;;;;5030828;23;20130;-61
2021/03/09 08:23:31;;;;;;;1.85;1.52;;;17.60;47.50;;;;;;5009470;28;20492;-62
2021/03/09 08:26:04;;;;;;;4.38;1.75;;;17.70;47.60;;;;;;5025818;28;20029;-64
2021/03/09 08:28:31;;;;;;;4.35;2.05;;;17.60;47.60;;;;;;5025618;28;20114;-63
2021/03/09 08:31:19;;;;;;;3.08;1.38;;;17.60;47.70;;;;;;5014926;28;20036;-64
2021/03/09 08:33:45;;;;;;;7.82;1.42;;;17.60;47.70;;;;;;5006044;28;20022;-61
2021/03/09 08:36:20;;;;;;;2.25;1.58;;;17.60;47.80;;;;;;5004930;28;20457;-63
2021/03/09 08:41:27;;;;;;;7.30;1.67;;;17.60;47.90;;;;;;5006074;28;20037;-63
2021/03/09 08:44:21;;;;;;;2.58;1.30;;;17.50;47.90;;;;;;5005856;28;20053;-60
2021/03/09 08:47:11;;;;;;;2.53;1.90;;;17.60;47.90;;;;;;5005478;28;20480;-62
2021/03/09 08:49:36;;;;;;;3.92;1.90;;;17.50;48.00;;;;;;5006244;28;20464;-64
2021/03/09 08:52:02;;;;;;;2.63;1.83;;;17.50;48.00;;;;;;5006063;28;20145;-63
2021/03/09 08:54:31;;;;;;;3.63;1.80;;;17.50;48.10;;;;;;5006107;28;20049;-61
2021/03/09 08:57:02;;;;;;;3.05;1.50;;;17.50;48.10;;;;;;5004582;28;20022;-64
2021/03/09 08:59:29;;;;;;;4.93;1.50;;;17.50;48.20;;;;;;5004710;28;20022;-62
2021/03/09 09:02:19;;;;;;;4.18;1.65;;;17.40;48.60;;;;;;5004675;28;20022;-64
2021/03/09 09:04:54;;;;;;;3.75;1.77;;;17.40;48.80;;;;;;5000616;28;20505;-63
2021/03/09 09:07:36;;;;;;;5.00;1.58;;;17.40;48.90;;;;;;5005470;28;20037;-60
2021/03/09 09:10:14;;;;;;;3.50;1.70;;;17.40;48.70;;;;;;5005347;28;20022;-63
2021/03/09 09:12:39;;;;;;;3.30;1.70;;;17.50;48.40;;;;;;5005959;28;20519;-64
2021/03/09 09:15:07;;;;;;;5.22;2.00;;;17.50;48.20;;;;;;5004482;28;20022;-63
2021/03/09 09:17:33;;;;;;;4.40;1.50;;;17.60;48.10;;;;;;5007643;28;20022;-62
2021/03/09 09:19:59;;;;;;;4.28;1.73;;;17.70;47.90;;;;;;5007721;28;20515;-63
2021/03/09 09:22:28;;;;;;;5.32;1.98;;;17.70;47.80;;;;;;5007874;28;20714;-62
2021/03/09 09:24:55;;;;;;;3.72;1.70;;;17.80;47.70;;;;;;5009607;28;20034;-62
2021/03/09 09:27:21;;;;;;;2.13;1.20;;;17.90;47.60;;;;;;5009104;28;20026;-62
2021/03/09 09:29:56;;;;;;;1.90;1.50;;;17.90;47.50;;;;;;5009564;28;20512;-62
2021/03/09 09:32:22;;;;;;;3.80;1.60;;;17.90;47.40;;;;;;5007904;28;20033;-63
2021/03/09 09:34:55;;;;;;;2.95;1.58;;;18.00;47.30;;;;;;5009604;28;20030;-61
2021/03/09 09:37:20;;;;;;;2.00;1.50;;;18.00;47.30;;;;;;5008716;28;20017;-63
2021/03/09 09:39:46;;;;;;;4.00;1.77;;;18.00;47.30;;;;;;5009668;28;20037;-63
2021/03/09 09:42:13;;;;;;;2.92;1.52;;;17.90;47.30;;;;;;5009089;28;20034;-63
2021/03/09 09:44:38;;;;;;;2.67;1.92;;;17.90;47.30;;;;;;5012607;28;20038;-63
2021/03/09 09:47:04;;;;;;;3.22;1.52;;;17.90;47.30;;;;;;5009253;28;20049;-64
2021/03/09 09:49:29;;;;;;;3.00;1.52;;;17.90;47.30;;;;;;5008602;28;20033;-65
2021/03/09 09:51:55;;;;;;;2.05;1.40;;;17.90;47.20;;;;;;4990401;28;20030;-64
2021/03/09 09:54:20;;;;;;;2.13;1.48;;;18.00;47.10;;;;;;4998217;28;20485;-65
2021/03/09 09:56:47;;;;;;;4.18;1.63;;;18.00;46.90;;;;;;5007408;28;20125;-64
2021/03/09 09:59:25;;;;;;;2.67;1.67;;;18.00;46.70;;;;;;5007675;28;20029;-65
2021/03/09 10:01:50;;;;;;;3.90;1.92;;;18.00;46.70;;;;;;5008460;28;20034;-63
2021/03/09 10:04:16;;;;;;;2.65;1.52;;;17.90;46.80;;;;;;5008173;28;20061;-62
2021/03/09 10:06:49;;;;;;;3.08;1.77;;;17.90;47.00;;;;;;5008813;28;20061;-63
2021/03/09 10:09:24;;;;;;;3.38;1.70;;;17.80;47.00;;;;;;5007259;28;20026;-63
2021/03/09 10:11:51;;;;;;;3.40;1.40;;;17.80;47.00;;;;;;5007411;28;20022;-60
2021/03/09 10:14:18;;;;;;;2.95;1.63;;;17.70;47.00;;;;;;5007110;28;20038;-64
2021/03/09 10:16:44;;;;;;;2.47;1.77;;;17.80;46.90;;;;;;5008280;28;20096;-65
2021/03/09 10:19:15;;;;;;;3.42;1.38;;;17.80;46.70;;;;;;5006888;28;20022;-60
2021/03/09 10:21:40;;;;;;;3.65;1.75;;;17.90;46.50;;;;;;5006721;28;20722;-62
2021/03/09 10:24:07;;;;;;;2.30;1.88;;;17.90;46.50;;;;;;5007890;28;20052;-61
2021/03/09 10:26:37;;;;;;;2.63;1.65;;;17.90;46.40;;;;;;5006117;28;20092;-62
2021/03/09 10:29:13;;;;;;;2.63;2.05;;;17.90;46.40;;;;;;5006726;28;20116;-62
2021/03/09 10:31:43;;;;;;;2.50;2.10;;;17.90;46.40;;;;;;5008084;28;20446;-63
2021/03/09 10:34:09;;;;;;;3.42;1.90;;;17.90;46.40;;;;;;5006405;28;20056;-60
2021/03/09 10:36:55;;;;;;;2.53;1.95;;;17.90;46.30;;;;;;5007624;28;20485;-60
2021/03/09 10:39:21;;;;;;;1.98;1.33;;;17.80;46.30;;;;;;5008039;28;20034;-63
2021/03/09 10:41:47;;;;;;;2.75;1.50;;;17.80;46.30;;;;;;5007651;28;20041;-63
2021/03/09 10:44:33;;;;;;;2.05;1.48;;;17.80;46.40;;;;;;5007859;28;20471;-61
2021/03/09 10:46:59;;;;;;;1.65;1.50;;;17.80;46.40;;;;;;5007005;28;20057;-63
2021/03/09 10:49:25;;;;;;;1.98;1.40;;;17.80;46.40;;;;;;5007368;28;20116;-63
2021/03/09 10:51:55;;;;;;;1.92;1.58;;;17.70;46.30;;;;;;5007362;28;20113;-62
2021/03/09 10:54:21;;;;;;;2.13;1.63;;;17.70;46.40;;;;;;5007425;28;20059;-61
2021/03/09 10:56:46;;;;;;;1.67;1.58;;;17.70;46.50;;;;;;5007549;28;20034;-62
2021/03/09 10:59:11;;;;;;;2.13;1.80;;;17.70;46.40;;;;;;5007922;28;20030;-62
2021/03/09 11:01:37;;;;;;;2.72;1.52;;;17.70;46.40;;;;;;5006175;28;20463;-62
2021/03/09 11:04:03;;;;;;;3.20;1.50;;;17.70;46.40;;;;;;5007645;28;20484;-64
2021/03/09 11:06:28;;;;;;;1.83;1.50;;;17.70;46.40;;;;;;5006055;28;20105;-58
2021/03/09 11:08:54;;;;;;;2.45;1.60;;;17.70;46.40;;;;;;5007059;28;20060;-59
2021/03/09 11:11:19;;;;;;;1.50;1.38;;;17.60;46.40;;;;;;5007293;28;20030;-61
2021/03/09 11:13:44;;;;;;;1.83;1.48;;;17.70;46.40;;;;;;5007514;28;20034;-62
2021/03/09 11:16:10;;;;;;;2.00;1.58;;;17.60;46.40;;;;;;5005605;28;20091;-61
2021/03/09 11:18:35;;;;;;;1.98;1.33;;;17.60;46.40;;;;;;5007239;28;20657;-62
2021/03/09 11:21:02;;;;;;;2.50;1.70;;;17.60;46.40;;;;;;5007213;28;20034;-61
2021/03/09 11:23:27;;;;;;;1.85;1.60;;;17.60;46.40;;;;;;5007305;28;20025;-62
2021/03/09 11:25:53;;;;;;;2.55;1.50;;;17.60;46.40;;;;;;5005997;28;20057;-60
2021/03/09 11:28:18;;;;;;;2.00;1.60;;;17.60;46.40;;;;;;5005361;28;20593;-63
2021/03/09 11:30:44;;;;;;;1.95;1.50;;;17.60;46.50;;;;;;5007349;28;20145;-60
2021/03/09 11:33:09;;;;;;;1.60;1.50;;;17.60;46.50;;;;;;5006870;28;20079;-62
2021/03/09 11:35:35;;;;;;;2.35;1.70;;;17.60;46.40;;;;;;5005801;28;20120;-62
2021/03/09 11:38:00;;;;;;;2.00;1.63;;;17.60;46.50;;;;;;5006454;28;20025;-62
2021/03/09 11:40:26;;;;;;;1.63;1.33;;;17.60;46.50;;;;;;5006998;28;20042;-60
2021/03/09 11:42:51;;;;;;;2.10;1.73;;;17.60;46.50;;;;;;5007198;28;20121;-62
2021/03/09 11:45:17;;;;;;;3.05;1.60;;;17.60;46.50;;;;;;5007199;28;20029;-64
2021/03/09 11:47:42;;;;;;;3.67;1.63;;;17.60;46.50;;;;;;5004906;28;20101;-63
2021/03/09 11:50:09;;;;;;;1.60;1.27;;;17.60;46.60;;;;;;5005594;28;20754;-60
2021/03/09 11:52:34;;;;;;;1.40;1.30;;;17.50;46.50;;;;;;5006314;28;20084;-64
2021/03/09 11:55:00;;;;;;;2.63;1.63;;;17.50;46.60;;;;;;5006718;28;20026;-62
2021/03/09 11:57:25;;;;;;;1.73;1.30;;;17.50;46.70;;;;;;5006066;28;20026;-63
2021/03/09 11:59:51;;;;;;;2.20;1.50;;;17.50;46.80;;;;;;5006772;28;20228;-62
2021/03/09 12:02:16;;;;;;;2.22;1.60;;;17.60;46.80;;;;;;5006875;28;20032;-64
2021/03/09 12:04:42;;;;;;;2.00;1.48;;;17.60;46.60;;;;;;5006954;28;20037;-64
2021/03/09 12:07:07;;;;;;;2.15;1.38;;;17.70;46.60;;;;;;5005942;28;20038;-61
2021/03/09 12:09:33;;;;;;;2.92;1.83;;;17.80;46.40;;;;;;5004361;28;20714;-61
2021/03/09 12:11:58;;;;;;;1.52;1.40;;;17.90;46.30;;;;;;5003534;28;20049;-64
2021/03/09 12:14:24;;;;;;;1.80;1.58;;;17.90;46.20;;;;;;5004202;28;20112;-65
2021/03/09 12:16:49;;;;;;;1.73;1.52;;;18.00;46.10;;;;;;5002712;28;20120;-63
2021/03/09 12:19:15;;;;;;;1.85;1.27;;;18.00;46.10;;;;;;5003363;28;20022;-64
2021/03/09 12:21:40;;;;;;;2.20;1.42;;;18.00;46.10;;;;;;5004776;28;20049;-63
2021/03/09 12:24:06;;;;;;;1.70;1.40;;;18.10;46.10;;;;;;5006545;28;20034;-63
2021/03/09 12:26:33;;;;;;;2.40;1.40;;;18.00;45.90;;;;;;5003781;28;20045;-63
2021/03/09 12:28:59;;;;;;;1.77;1.50;;;18.00;46.10;;;;;;5004276;28;20425;-61
2021/03/09 12:31:24;;;;;;;1.77;1.60;;;18.00;46.10;;;;;;5004451;28;20655;-66
2021/03/09 12:33:50;;;;;;;1.60;1.40;;;18.00;46.10;;;;;;5003752;28;20022;-65
2021/03/09 12:36:15;;;;;;;1.90;1.70;;;18.00;46.10;;;;;;5002580;28;20026;-64
2021/03/09 12:38:41;;;;;;;1.40;1.30;;;18.00;46.10;;;;;;5002551;28;20100;-64
2021/03/09 12:41:06;;;;;;;1.52;1.35;;;18.00;46.10;;;;;;5004680;28;20026;-63
2021/03/09 12:43:32;;;;;;;2.08;1.35;;;17.90;46.20;;;;;;5004301;28;20098;-63
2021/03/09 12:45:57;;;;;;;2.67;1.30;;;17.90;46.20;;;;;;5005259;28;20037;-63
2021/03/09 12:48:23;;;;;;;1.63;1.40;;;17.90;46.30;;;;;;5008914;28;20034;-63
2021/03/09 12:50:48;;;;;;;1.65;1.50;;;17.90;46.20;;;;;;5004161;28;20022;-62
2021/03/09 12:53:14;;;;;;;2.83;1.30;;;18.00;46.20;;;;;;5007294;28;20557;-62
2021/03/09 12:55:39;;;;;;;1.75;1.40;;;18.00;46.10;;;;;;5008300;28;20042;-61